createdAt,value
2023-05-11T00:00:40.648Z,6.40
2023-05-11T00:03:07.856Z,5.70
2023-05-11T00:05:35.029Z,6.60
2023-05-11T00:08:02.184Z,5.60
2023-05-11T00:10:29.781Z,6.50
2023-05-11T00:12:57.966Z,6.60
2023-05-11T00:15:25.826Z,5.80
2023-05-11T00:17:52.997Z,6.50
2023-05-11T00:20:22.292Z,8.50
2023-05-11T00:22:49.862Z,6.40
2023-05-11T00:25:17.059Z,7.20
2023-05-11T00:27:46.289Z,7.40
2023-05-11T00:30:15.066Z,6.80
2023-05-11T00:32:43.102Z,7.10
2023-05-11T00:35:11.768Z,7.10
2023-05-11T00:37:41.852Z,6.60
2023-05-11T00:40:09.401Z,7.30
2023-05-11T00:42:36.683Z,10.40
2023-05-11T00:45:04.662Z,9.10
2023-05-11T00:47:32.263Z,9.30
2023-05-11T00:49:59.397Z,8.60
2023-05-11T00:52:27.248Z,10.00
2023-05-11T00:54:54.362Z,12.30
2023-05-11T00:57:21.617Z,11.80
2023-05-11T00:59:49.977Z,9.40
2023-05-11T01:02:17.609Z,10.20
2023-05-11T01:04:45.024Z,12.70
2023-05-11T01:07:29.545Z,13.30
2023-05-11T01:10:10.668Z,12.80
2023-05-11T01:15:26.286Z,15.30
2023-05-11T01:18:25.156Z,12.30
2023-05-11T01:20:55.520Z,11.20
2023-05-11T01:23:26.017Z,12.80
2023-05-11T01:26:02.663Z,12.70
2023-05-11T01:28:45.247Z,13.10
2023-05-11T01:31:13.133Z,15.50
2023-05-11T01:33:44.752Z,14.20
2023-05-11T01:36:11.786Z,17.50
2023-05-11T01:38:41.151Z,14.20
2023-05-11T01:41:16.064Z,13.90
2023-05-11T01:43:44.584Z,12.10
2023-05-11T01:46:11.697Z,11.90
2023-05-11T01:48:40.380Z,12.10
2023-05-11T01:51:07.399Z,10.80
2023-05-11T01:53:35.976Z,10.00
2023-05-11T01:56:03.279Z,10.00
2023-05-11T01:58:30.483Z,10.70
2023-05-11T02:00:58.135Z,9.40
2023-05-11T02:03:25.250Z,9.90
2023-05-11T02:05:52.713Z,9.40
2023-05-11T02:08:19.993Z,9.00
2023-05-11T02:10:47.586Z,10.60
2023-05-11T02:13:14.754Z,10.70
2023-05-11T02:15:42.531Z,13.10
2023-05-11T02:18:11.573Z,11.90
2023-05-11T02:20:39.763Z,12.50
2023-05-11T02:23:07.057Z,12.10
2023-05-11T02:25:34.105Z,11.40
2023-05-11T02:28:01.538Z,12.20
2023-05-11T02:30:28.664Z,12.60
2023-05-11T02:32:56.740Z,12.50
2023-05-11T02:35:25.976Z,10.60
2023-05-11T02:37:55.051Z,11.90
2023-05-11T02:40:26.740Z,12.60
2023-05-11T02:42:57.314Z,11.70
2023-05-11T02:47:55.334Z,11.50
2023-05-11T02:50:25.726Z,10.40
2023-05-11T02:52:57.285Z,11.00
2023-05-11T02:55:24.607Z,10.40
2023-05-11T02:57:51.731Z,12.20
2023-05-11T03:00:19.161Z,12.20
2023-05-11T03:02:46.760Z,11.60
2023-05-11T03:05:15.514Z,11.90
2023-05-11T03:07:43.250Z,11.90
2023-05-11T03:10:10.963Z,12.90
2023-05-11T03:12:40.174Z,12.40
2023-05-11T03:15:08.516Z,11.40
2023-05-11T03:17:36.053Z,11.90
2023-05-11T03:20:04.221Z,12.00
2023-05-11T03:22:31.676Z,10.80
2023-05-11T03:24:58.854Z,10.80
2023-05-11T03:27:26.106Z,10.30
2023-05-11T03:29:53.315Z,11.30
2023-05-11T03:32:20.693Z,11.90
2023-05-11T03:34:47.967Z,12.70
2023-05-11T03:37:15.802Z,12.80
2023-05-11T03:39:44.203Z,11.30
2023-05-11T03:42:12.582Z,11.10
2023-05-11T03:44:39.626Z,10.30
2023-05-11T03:47:06.674Z,9.40
2023-05-11T03:49:34.553Z,9.60
2023-05-11T03:52:03.126Z,11.70
2023-05-11T03:54:30.243Z,11.30
2023-05-11T03:56:57.298Z,12.20
2023-05-11T03:59:24.301Z,11.50
2023-05-11T04:01:53.453Z,12.60
2023-05-11T04:04:21.533Z,11.80
2023-05-11T04:06:48.711Z,13.90
2023-05-11T04:09:19.048Z,12.30
2023-05-11T04:11:46.127Z,9.60
2023-05-11T04:14:13.283Z,8.00
2023-05-11T04:16:40.325Z,9.10
2023-05-11T04:19:07.666Z,9.10
2023-05-11T04:21:36.178Z,9.30
2023-05-11T04:24:03.967Z,8.60
2023-05-11T04:26:31.091Z,8.00
2023-05-11T04:28:58.130Z,8.30
2023-05-11T04:31:25.194Z,7.10
2023-05-11T04:33:52.427Z,6.40
2023-05-11T04:36:20.593Z,6.00
2023-05-11T04:38:47.666Z,6.20
2023-05-11T04:41:15.714Z,6.40
2023-05-11T04:43:42.952Z,6.50
2023-05-11T04:46:10.494Z,5.60
2023-05-11T04:48:37.602Z,7.10
2023-05-11T04:51:06.250Z,6.40
2023-05-11T04:53:38.754Z,7.30
2023-05-11T04:56:05.954Z,7.00
2023-05-11T04:58:33.004Z,7.30
2023-05-11T05:01:01.383Z,7.10
2023-05-11T05:03:30.854Z,6.90
2023-05-11T05:06:00.444Z,7.50
2023-05-11T05:08:28.595Z,6.60
2023-05-11T05:10:55.962Z,6.50
2023-05-11T05:13:24.060Z,7.30
2023-05-11T05:15:51.888Z,5.70
2023-05-11T05:18:19.163Z,6.90
2023-05-11T05:20:48.385Z,7.80
2023-05-11T05:23:15.518Z,8.90
2023-05-11T05:25:42.816Z,7.90
2023-05-11T05:28:11.910Z,8.00
2023-05-11T05:30:40.986Z,8.30
2023-05-11T05:33:09.459Z,9.60
2023-05-11T05:35:36.474Z,10.00
2023-05-11T05:38:03.831Z,9.60
2023-05-11T05:40:31.444Z,9.20
2023-05-11T05:42:58.532Z,15.60
2023-05-11T05:45:25.987Z,9.40
2023-05-11T05:47:54.663Z,9.20
2023-05-11T05:50:22.627Z,9.20
2023-05-11T05:52:49.688Z,8.20
2023-05-11T05:55:17.467Z,8.40
2023-05-11T05:57:46.281Z,8.20
2023-05-11T06:00:14.152Z,9.20
2023-05-11T06:02:41.876Z,8.80
2023-05-11T06:05:15.954Z,8.10
2023-05-11T06:07:46.627Z,7.60
2023-05-11T06:10:19.161Z,7.10
2023-05-11T06:12:47.107Z,7.50
2023-05-11T06:15:15.453Z,7.20
2023-05-11T06:17:46.364Z,7.30
2023-05-11T06:20:14.189Z,7.50
2023-05-11T06:22:41.455Z,6.30
2023-05-11T06:25:08.862Z,6.10
2023-05-11T06:27:36.280Z,5.90
2023-05-11T06:30:03.468Z,5.90
2023-05-11T06:32:34.278Z,7.00
2023-05-11T06:35:02.368Z,5.80
2023-05-11T06:37:30.410Z,5.50
2023-05-11T06:39:58.779Z,5.20
2023-05-11T06:42:27.308Z,5.20
2023-05-11T06:45:04.598Z,4.10
2023-05-11T06:47:33.206Z,5.30
2023-05-11T06:50:01.066Z,4.90
2023-05-11T06:52:28.432Z,4.90
2023-05-11T06:54:56.429Z,4.00
2023-05-11T06:57:23.557Z,4.50
2023-05-11T06:59:50.870Z,5.20
2023-05-11T07:02:18.243Z,5.10
2023-05-11T07:04:45.391Z,4.80
2023-05-11T07:07:12.610Z,4.60
2023-05-11T07:09:41.892Z,4.10
2023-05-11T07:12:09.632Z,4.10
2023-05-11T07:14:36.875Z,4.00
2023-05-11T07:17:04.869Z,3.90
2023-05-11T07:19:32.289Z,3.90
2023-05-11T07:21:59.503Z,4.00
2023-05-11T07:24:26.786Z,4.10
2023-05-11T07:26:53.894Z,3.90
2023-05-11T07:29:21.388Z,4.30
2023-05-11T07:31:48.623Z,5.80
2023-05-11T07:34:16.408Z,4.40
2023-05-11T07:36:43.551Z,3.80
2023-05-11T07:39:11.907Z,3.70
2023-05-11T07:41:40.524Z,4.00
2023-05-11T07:44:09.953Z,4.30
2023-05-11T07:46:37.617Z,3.90
2023-05-11T07:49:16.785Z,3.60
2023-05-11T07:51:45.909Z,3.50
2023-05-11T07:54:13.046Z,3.70
2023-05-11T07:56:40.221Z,3.60
2023-05-11T07:59:07.358Z,3.40
2023-05-11T08:01:36.952Z,4.00
2023-05-11T08:04:04.254Z,3.60
2023-05-11T08:06:31.354Z,3.90
2023-05-11T08:08:58.954Z,3.40
2023-05-11T08:11:28.314Z,4.00
2023-05-11T08:13:55.394Z,4.80
2023-05-11T08:16:22.870Z,4.20
2023-05-11T08:18:49.994Z,3.40
2023-05-11T08:21:17.818Z,3.50
2023-05-11T08:23:45.262Z,3.50
2023-05-11T08:26:12.401Z,3.30
2023-05-11T08:28:39.686Z,3.40
2023-05-11T08:31:07.133Z,3.50
2023-05-11T08:33:38.003Z,3.70
2023-05-11T08:36:07.014Z,3.10
2023-05-11T08:38:35.513Z,3.90
2023-05-11T08:41:03.007Z,3.40
2023-05-11T08:43:30.154Z,3.20
2023-05-11T08:45:58.322Z,3.20
2023-05-11T08:48:25.437Z,3.00
2023-05-11T08:50:52.868Z,3.10
2023-05-11T08:53:20.086Z,3.10
2023-05-11T08:55:47.364Z,3.20
2023-05-11T08:58:19.631Z,3.30
2023-05-11T09:00:47.401Z,3.70
2023-05-11T09:03:14.891Z,2.90
2023-05-11T09:05:42.273Z,3.00
2023-05-11T09:08:09.392Z,3.60
2023-05-11T09:10:36.982Z,2.90
2023-05-11T09:13:04.203Z,3.00
2023-05-11T09:15:37.081Z,2.80
2023-05-11T09:18:05.229Z,2.80
2023-05-11T09:20:33.512Z,2.70
2023-05-11T09:23:01.108Z,2.70
2023-05-11T09:25:30.842Z,3.00
2023-05-11T09:28:00.869Z,2.50
2023-05-11T09:37:58.534Z,2.60
2023-05-11T09:43:00.965Z,2.50
2023-05-11T09:45:36.329Z,2.40
2023-05-11T09:48:06.773Z,2.90
2023-05-11T09:53:01.688Z,2.90
2023-05-11T09:55:28.914Z,2.30
2023-05-11T09:57:57.680Z,2.40
2023-05-11T10:00:24.976Z,3.20
2023-05-11T10:03:06.663Z,3.10
2023-05-11T10:05:34.866Z,3.00
2023-05-11T10:08:05.614Z,3.40
2023-05-11T10:13:01.657Z,2.50
2023-05-11T10:15:32.222Z,2.40
2023-05-11T10:18:02.277Z,2.50
2023-05-11T10:20:29.734Z,2.50
2023-05-11T10:22:56.777Z,2.50
2023-05-11T10:25:26.009Z,2.70
2023-05-11T10:27:53.119Z,2.40
2023-05-11T10:30:20.417Z,2.50
2023-05-11T10:32:49.196Z,2.60
2023-05-11T10:35:16.939Z,2.60
2023-05-11T10:37:44.132Z,2.40
2023-05-11T10:40:11.530Z,2.70
2023-05-11T10:42:45.292Z,3.10
2023-05-11T10:45:41.138Z,2.80
2023-05-11T10:48:36.661Z,2.30
2023-05-11T10:51:19.018Z,2.50
2023-05-11T10:53:54.853Z,2.00
2023-05-11T10:56:56.045Z,2.10
2023-05-11T10:59:52.023Z,2.40
2023-05-11T11:02:19.799Z,2.40
2023-05-11T11:04:48.374Z,2.10
2023-05-11T11:07:21.108Z,2.60
2023-05-11T11:09:51.714Z,1.90
2023-05-11T11:12:19.606Z,2.00
2023-05-11T11:15:13.184Z,2.10
2023-05-11T11:17:40.575Z,2.10
2023-05-11T11:20:08.044Z,2.20
2023-05-11T11:22:35.047Z,2.20
2023-05-11T11:25:05.331Z,2.10
2023-05-11T11:27:42.478Z,2.40
2023-05-11T11:30:17.130Z,2.20
2023-05-11T11:32:48.517Z,2.40
2023-05-11T11:35:40.822Z,2.80
2023-05-11T11:38:09.048Z,2.30
2023-05-11T11:40:49.460Z,2.40
2023-05-11T11:43:19.374Z,2.30
2023-05-11T11:45:59.075Z,2.20
2023-05-11T11:48:30.466Z,2.20
2023-05-11T11:51:07.973Z,3.00
2023-05-11T11:53:40.441Z,2.00
2023-05-11T11:56:13.597Z,2.00
2023-05-11T11:58:40.650Z,2.50
2023-05-11T12:01:08.029Z,2.20
2023-05-11T12:03:36.149Z,2.10
2023-05-11T12:06:07.490Z,2.10
2023-05-11T12:08:36.075Z,2.80
2023-05-11T12:11:03.606Z,2.30
2023-05-11T12:13:31.505Z,2.30
2023-05-11T12:16:13.981Z,1.80
2023-05-11T12:18:41.590Z,2.60
2023-05-11T12:21:21.636Z,1.80
2023-05-11T12:23:52.764Z,2.40
2023-05-11T12:26:21.330Z,2.30
2023-05-11T12:28:51.962Z,2.20
2023-05-11T12:31:18.998Z,2.20
2023-05-11T12:33:51.435Z,2.00
2023-05-11T12:36:20.279Z,2.40
2023-05-11T12:38:49.283Z,1.70
2023-05-11T12:41:25.351Z,2.10
2023-05-11T12:43:53.880Z,2.20
2023-05-11T12:46:22.509Z,2.00
2023-05-11T12:48:50.046Z,2.00
2023-05-11T12:51:42.774Z,1.80
2023-05-11T12:54:11.214Z,1.60
2023-05-11T12:56:51.354Z,1.70
2023-05-11T12:59:31.139Z,1.90
2023-05-11T13:02:20.814Z,2.30
2023-05-11T13:04:48.040Z,1.70
2023-05-11T13:07:23.622Z,2.40
2023-05-11T13:09:57.984Z,2.20
2023-05-11T13:12:25.860Z,2.10
2023-05-11T13:15:07.683Z,1.90
2023-05-11T13:17:39.646Z,2.20
2023-05-11T13:20:29.061Z,2.20
2023-05-11T13:23:06.874Z,1.90
2023-05-11T13:25:35.270Z,2.00
2023-05-11T13:28:02.303Z,2.00
2023-05-11T13:30:29.513Z,2.00
2023-05-11T13:32:56.796Z,2.20
2023-05-11T13:35:23.732Z,2.20
2023-05-11T13:37:50.702Z,1.90
2023-05-11T13:40:17.741Z,1.80
2023-05-11T13:42:45.578Z,2.20
2023-05-11T13:45:12.690Z,2.20
2023-05-11T13:47:41.501Z,1.90
2023-05-11T13:50:09.813Z,1.80
2023-05-11T13:52:36.883Z,2.20
2023-05-11T13:55:04.393Z,2.80
2023-05-11T13:57:31.633Z,2.00
2023-05-11T13:59:58.584Z,2.00
2023-05-11T14:02:26.067Z,2.20
2023-05-11T14:04:53.330Z,1.80
2023-05-11T14:15:21.465Z,2.00
2023-05-11T14:17:49.394Z,2.50
2023-05-11T14:20:17.365Z,1.80
2023-05-11T14:22:44.783Z,2.10
2023-05-11T14:25:11.786Z,1.90
2023-05-11T14:27:38.918Z,2.20
2023-05-11T14:30:07.094Z,2.20
2023-05-11T14:32:34.998Z,2.30
2023-05-11T14:35:01.932Z,7.40
2023-05-11T14:37:29.209Z,2.30
2023-05-11T14:39:56.209Z,2.50
2023-05-11T14:42:23.425Z,3.00
2023-05-11T14:44:50.479Z,1.70
2023-05-11T14:47:17.401Z,1.60
2023-05-11T14:49:44.611Z,1.60
2023-05-11T14:52:11.867Z,1.70
2023-05-11T14:54:38.784Z,2.20
2023-05-11T14:57:06.020Z,2.00
2023-05-11T14:59:32.896Z,2.00
2023-05-11T15:02:00.062Z,1.90
2023-05-11T15:04:27.099Z,2.80
2023-05-11T15:06:54.469Z,2.30
2023-05-11T15:09:21.591Z,2.10
2023-05-11T15:11:48.650Z,2.00
2023-05-11T15:14:16.300Z,2.10
2023-05-11T15:16:43.265Z,2.20
2023-05-11T15:19:12.074Z,2.40
2023-05-11T15:21:39.202Z,1.80
2023-05-11T15:24:07.513Z,2.10
2023-05-11T15:26:36.721Z,2.20
2023-05-11T15:29:03.770Z,2.50
2023-05-11T15:31:30.715Z,2.40
2023-05-11T15:33:59.826Z,2.20
2023-05-11T15:36:29.982Z,3.10
2023-05-11T15:38:57.009Z,4.30
2023-05-11T15:41:25.854Z,3.60
2023-05-11T15:43:54.493Z,3.40
2023-05-11T15:46:22.023Z,3.30
2023-05-11T15:48:49.134Z,2.60
2023-05-11T15:51:16.758Z,2.40
2023-05-11T15:53:43.901Z,2.10
2023-05-11T15:56:13.447Z,2.10
2023-05-11T15:58:42.660Z,2.00
2023-05-11T16:01:10.430Z,2.90
2023-05-11T16:03:37.731Z,2.20
2023-05-11T16:06:06.090Z,2.00
2023-05-11T16:08:33.951Z,2.40
2023-05-11T16:11:00.954Z,2.50
2023-05-11T16:13:27.870Z,2.20
2023-05-11T16:15:54.782Z,2.50
2023-05-11T16:18:21.920Z,2.30
2023-05-11T16:20:48.900Z,3.00
2023-05-11T16:23:15.873Z,2.40
2023-05-11T16:25:42.969Z,2.80
2023-05-11T16:28:10.125Z,2.90
2023-05-11T16:30:37.162Z,2.70
2023-05-11T16:33:04.147Z,3.20
2023-05-11T16:35:33.524Z,3.50
2023-05-11T16:38:00.695Z,3.00
2023-05-11T16:40:27.713Z,3.30
2023-05-11T16:42:54.862Z,3.40
2023-05-11T16:45:22.364Z,3.40
2023-05-11T16:47:49.614Z,4.40
2023-05-11T16:50:17.591Z,4.30
2023-05-11T16:52:45.441Z,4.00
2023-05-11T16:55:12.738Z,4.20
2023-05-11T16:57:40.033Z,4.00
2023-05-11T17:00:08.452Z,3.30
2023-05-11T17:02:36.415Z,3.70
2023-05-11T17:05:05.005Z,3.40
2023-05-11T17:07:32.327Z,4.20
2023-05-11T17:10:00.690Z,3.70
2023-05-11T17:12:28.486Z,3.00
2023-05-11T17:14:56.986Z,3.50
2023-05-11T17:17:24.216Z,3.90
2023-05-11T17:19:51.415Z,3.60
2023-05-11T17:22:19.634Z,3.50
2023-05-11T17:24:48.178Z,3.30
2023-05-11T17:27:15.977Z,3.30
2023-05-11T17:29:43.828Z,3.70
2023-05-11T17:32:10.940Z,4.30
2023-05-11T17:34:38.064Z,21.70
2023-05-11T17:37:05.267Z,4.90
2023-05-11T17:39:33.624Z,3.70
2023-05-11T17:42:01.651Z,3.60
2023-05-11T17:44:30.312Z,3.50
2023-05-11T17:46:57.682Z,3.40
2023-05-11T17:49:24.898Z,3.50
2023-05-11T17:51:52.013Z,3.40
2023-05-11T17:54:20.149Z,3.30
2023-05-11T17:56:47.167Z,3.90
2023-05-11T17:59:14.913Z,4.80
2023-05-11T18:01:42.860Z,8.30
2023-05-11T18:04:10.083Z,3.20
2023-05-11T18:06:37.077Z,3.50
2023-05-11T18:09:08.219Z,3.50
2023-05-11T18:11:35.544Z,3.40
2023-05-11T18:14:03.281Z,3.00
2023-05-11T18:16:30.883Z,3.30
2023-05-11T18:19:00.290Z,8.00
2023-05-11T18:21:28.457Z,4.70
2023-05-11T18:23:56.118Z,3.70
2023-05-11T18:26:25.472Z,3.90
2023-05-11T18:28:54.531Z,3.60
2023-05-11T18:31:21.885Z,3.40
2023-05-11T18:33:49.658Z,3.10
2023-05-11T18:36:16.975Z,3.20
2023-05-11T18:38:44.060Z,3.50
2023-05-11T18:41:11.444Z,3.40
2023-05-11T18:43:38.652Z,2.90
2023-05-11T18:46:08.241Z,4.00
2023-05-11T18:48:36.951Z,4.40
2023-05-11T18:51:04.720Z,4.00
2023-05-11T18:53:35.924Z,3.50
2023-05-11T18:56:04.936Z,4.60
2023-05-11T18:58:32.282Z,4.00
2023-05-11T19:00:59.249Z,4.60
2023-05-11T19:03:26.324Z,4.00
2023-05-11T19:05:54.801Z,4.60
2023-05-11T19:08:23.719Z,3.40
2023-05-11T19:10:53.978Z,4.60
2023-05-11T19:13:21.685Z,3.60
2023-05-11T19:15:49.481Z,3.70
2023-05-11T19:18:17.276Z,3.90
2023-05-11T19:20:44.382Z,4.80
2023-05-11T19:23:11.590Z,4.00
2023-05-11T19:25:38.666Z,3.90
2023-05-11T19:28:06.842Z,4.50
2023-05-11T19:30:36.040Z,4.90
2023-05-11T19:33:03.394Z,4.10
2023-05-11T19:35:33.058Z,4.20
2023-05-11T19:38:01.257Z,3.50
2023-05-11T19:43:02.024Z,3.70
2023-05-11T19:45:32.754Z,3.70
2023-05-11T19:48:00.265Z,4.00
2023-05-11T19:50:29.304Z,3.90
2023-05-11T19:52:56.980Z,4.30
2023-05-11T19:55:23.936Z,4.00
2023-05-11T19:57:52.253Z,4.10
2023-05-11T20:00:24.442Z,4.20
2023-05-11T20:02:52.219Z,4.10
2023-05-11T20:05:19.254Z,3.80
2023-05-11T20:07:46.241Z,4.30
2023-05-11T20:10:13.437Z,3.50
2023-05-11T20:12:40.408Z,4.10
2023-05-11T20:15:07.989Z,4.60
2023-05-11T20:17:35.563Z,5.40
2023-05-11T20:20:02.884Z,5.00
2023-05-11T20:22:30.801Z,5.20
2023-05-11T20:24:57.671Z,6.20
2023-05-11T20:27:24.733Z,6.80
2023-05-11T20:29:52.948Z,6.00
2023-05-11T20:32:20.226Z,6.30
2023-05-11T20:34:48.351Z,6.20
2023-05-11T20:37:16.690Z,5.70
2023-05-11T20:39:46.224Z,5.70
2023-05-11T20:42:13.571Z,6.10
2023-05-11T20:44:40.567Z,6.50
2023-05-11T20:47:08.560Z,5.40
2023-05-11T20:49:39.402Z,5.60
2023-05-11T20:52:07.435Z,5.40
2023-05-11T20:54:35.172Z,5.80
2023-05-11T20:57:02.626Z,6.30
2023-05-11T21:02:02.328Z,44.40
2023-05-11T21:04:31.776Z,9.00
2023-05-11T21:06:58.755Z,6.80
2023-05-11T21:09:25.805Z,5.60
2023-05-11T21:11:52.854Z,5.00
2023-05-11T21:14:19.835Z,5.20
2023-05-11T21:16:47.361Z,5.50
2023-05-11T21:19:15.909Z,6.60
2023-05-11T21:21:42.820Z,5.70
2023-05-11T21:24:09.937Z,6.00
2023-05-11T21:26:37.515Z,5.90
2023-05-11T21:29:04.747Z,5.90
2023-05-11T21:31:32.250Z,6.50
2023-05-11T21:33:59.512Z,5.40
2023-05-11T21:36:26.566Z,5.20
2023-05-11T21:38:53.555Z,4.90
2023-05-11T21:41:20.870Z,5.40
2023-05-11T21:43:47.914Z,4.90
2023-05-11T21:46:14.974Z,4.50
2023-05-11T21:48:42.506Z,6.00
2023-05-11T21:51:09.440Z,5.20
2023-05-11T21:53:36.743Z,5.70
2023-05-11T21:56:03.921Z,5.40
2023-05-11T21:58:31.331Z,5.50
2023-05-11T22:00:58.494Z,5.50
2023-05-11T22:03:28.168Z,5.20
2023-05-11T22:05:55.346Z,5.30
2023-05-11T22:08:22.427Z,5.60
2023-05-11T22:10:49.327Z,4.80
2023-05-11T22:13:16.607Z,5.00
2023-05-11T22:15:43.641Z,4.70
2023-05-11T22:18:11.111Z,4.90
2023-05-11T22:20:40.075Z,4.50
2023-05-11T22:23:07.562Z,5.00
2023-05-11T22:25:34.529Z,4.80
2023-05-11T22:28:01.700Z,4.50
2023-05-11T22:30:28.966Z,4.70
2023-05-11T22:32:56.042Z,4.70
2023-05-11T22:35:23.613Z,4.30
2023-05-11T22:37:50.947Z,4.70
2023-05-11T22:40:19.257Z,4.80
2023-05-11T22:42:46.557Z,5.20
2023-05-11T22:45:14.885Z,4.50
2023-05-11T22:47:42.406Z,4.50
2023-05-11T22:50:11.609Z,5.00
2023-05-11T22:52:38.956Z,5.10
2023-05-11T22:55:06.726Z,5.30
2023-05-11T22:57:34.805Z,5.80
2023-05-11T23:00:03.244Z,5.50
2023-05-11T23:02:33.002Z,5.70
2023-05-11T23:05:00.334Z,6.30
2023-05-11T23:07:30.213Z,6.00
2023-05-11T23:09:59.012Z,5.70
2023-05-11T23:12:26.185Z,5.60
2023-05-11T23:14:53.365Z,6.50
2023-05-11T23:17:20.488Z,6.70
2023-05-11T23:19:47.693Z,6.40
2023-05-11T23:22:14.757Z,7.30
